createdAt,value
2019-05-07T00:00:35.504Z,4.92
2019-05-07T00:03:03.263Z,5.40
2019-05-07T00:05:29.530Z,5.78
2019-05-07T00:07:55.534Z,4.10
2019-05-07T00:10:21.820Z,4.97
2019-05-07T00:12:49.546Z,4.70
2019-05-07T00:15:15.639Z,4.53
2019-05-07T00:17:42.874Z,4.97
2019-05-07T00:20:09.975Z,4.92
2019-05-07T00:22:35.880Z,4.92
2019-05-07T00:25:03.993Z,4.97
2019-05-07T00:27:31.923Z,4.03
2019-05-07T00:29:57.710Z,4.40
2019-05-07T00:32:23.811Z,4.83
2019-05-07T00:34:51.646Z,5.67
2019-05-07T00:37:28.536Z,4.92
2019-05-07T00:39:56.437Z,4.47
2019-05-07T00:42:32.175Z,5.33
2019-05-07T00:45:20.480Z,5.17
2019-05-07T00:47:37.355Z,5.10
2019-05-07T00:50:12.970Z,4.97
2019-05-07T00:52:39.223Z,4.70
2019-05-07T00:55:05.535Z,4.78
2019-05-07T00:57:32.382Z,6.22
2019-05-07T00:59:58.501Z,4.95
2019-05-07T01:02:24.497Z,5.50
2019-05-07T01:04:50.531Z,5.60
2019-05-07T01:07:16.538Z,6.00
2019-05-07T01:09:43.064Z,6.78
2019-05-07T01:12:09.307Z,7.53
2019-05-07T01:14:35.311Z,5.53
2019-05-07T01:17:02.369Z,5.35
2019-05-07T01:19:28.744Z,5.17
2019-05-07T01:21:54.861Z,5.53
2019-05-07T01:24:23.061Z,5.65
2019-05-07T01:26:48.792Z,5.87
2019-05-07T01:29:14.805Z,5.28
2019-05-07T01:31:43.190Z,6.03
2019-05-07T01:34:29.108Z,5.60
2019-05-07T01:36:55.141Z,5.45
2019-05-07T01:39:23.162Z,5.22
2019-05-07T01:41:49.031Z,6.08
2019-05-07T01:44:15.053Z,6.22
2019-05-07T01:46:42.194Z,5.58
2019-05-07T01:49:08.543Z,5.17
2019-05-07T01:51:34.670Z,6.08
2019-05-07T01:54:02.265Z,5.53
2019-05-07T01:56:28.383Z,6.25
2019-05-07T01:58:54.402Z,5.50
2019-05-07T02:01:22.196Z,5.72
2019-05-07T02:03:50.177Z,5.58
2019-05-07T02:06:34.977Z,5.40
2019-05-07T02:09:02.775Z,6.20
2019-05-07T02:11:32.691Z,5.50
2019-05-07T02:13:58.909Z,5.97
2019-05-07T02:16:25.119Z,6.00
2019-05-07T02:18:52.809Z,5.92
2019-05-07T02:21:19.044Z,5.83
2019-05-07T02:23:45.059Z,5.15
2019-05-07T02:26:13.115Z,6.15
2019-05-07T02:28:38.980Z,5.58
2019-05-07T02:31:05.089Z,5.37
2019-05-07T02:33:31.220Z,5.03
2019-05-07T02:35:57.758Z,6.12
2019-05-07T02:38:44.401Z,6.87
2019-05-07T02:41:18.536Z,5.80
2019-05-07T02:43:44.640Z,5.42
2019-05-07T02:46:30.496Z,5.92
2019-05-07T02:49:02.874Z,8.48
2019-05-07T02:51:33.471Z,5.25
2019-05-07T02:54:04.462Z,5.60
2019-05-07T02:56:33.301Z,5.25
2019-05-07T02:58:58.374Z,5.60
2019-05-07T03:01:24.505Z,5.20
2019-05-07T03:03:52.808Z,5.65
2019-05-07T03:06:18.624Z,4.83
2019-05-07T03:08:44.751Z,5.10
2019-05-07T03:11:14.080Z,4.72
2019-05-07T03:13:39.119Z,5.22
2019-05-07T03:16:05.224Z,6.10
2019-05-07T03:18:33.432Z,5.20
2019-05-07T03:21:03.868Z,4.60
2019-05-07T03:23:34.880Z,5.03
2019-05-07T03:26:04.143Z,5.42
2019-05-07T03:28:34.213Z,5.10
2019-05-07T03:36:56.426Z,6.40
2019-05-07T03:39:23.788Z,5.22
2019-05-07T03:41:48.883Z,4.97
2019-05-07T03:44:33.928Z,4.75
2019-05-07T03:47:17.096Z,5.65
2019-05-07T03:49:43.200Z,4.65
2019-05-07T03:52:09.310Z,5.40
2019-05-07T03:54:35.423Z,5.05
2019-05-07T03:57:10.092Z,4.62
2019-05-07T03:59:29.254Z,4.55
2019-05-07T04:01:55.253Z,4.30
2019-05-07T04:04:23.062Z,4.75
2019-05-07T04:06:49.398Z,5.17
2019-05-07T04:09:16.586Z,4.78
2019-05-07T04:11:43.240Z,4.80
2019-05-07T04:14:09.639Z,4.62
2019-05-07T04:16:35.973Z,4.37
2019-05-07T04:19:03.863Z,4.83
2019-05-07T04:21:29.908Z,5.08
2019-05-07T04:27:13.441Z,5.47
2019-05-07T04:29:39.348Z,4.47
2019-05-07T04:32:05.894Z,11.65
2019-05-07T04:34:45.956Z,9.48
2019-05-07T04:37:13.230Z,9.30
2019-05-07T04:39:42.865Z,6.78
2019-05-07T04:42:09.112Z,6.80
2019-05-07T04:44:35.025Z,6.60
2019-05-07T04:47:04.236Z,6.08
2019-05-07T04:49:28.987Z,4.83
2019-05-07T04:54:48.365Z,4.08
2019-05-07T04:57:26.541Z,4.45
2019-05-07T04:59:54.835Z,4.95
2019-05-07T05:02:23.208Z,4.87
2019-05-07T05:04:49.174Z,4.67
2019-05-07T05:07:15.230Z,4.35
2019-05-07T05:09:42.649Z,3.60
2019-05-07T05:12:08.812Z,4.12
2019-05-07T05:14:34.917Z,4.17
2019-05-07T05:17:02.052Z,4.30
2019-05-07T05:19:28.152Z,4.00
2019-05-07T05:22:05.019Z,4.40
2019-05-07T05:24:42.460Z,3.25
2019-05-07T05:27:08.515Z,4.37
2019-05-07T05:29:35.873Z,4.28
2019-05-07T05:32:02.370Z,4.22
2019-05-07T05:34:28.475Z,4.42
2019-05-07T05:36:54.592Z,4.83
2019-05-07T05:39:22.503Z,4.33
2019-05-07T05:41:51.829Z,4.03
2019-05-07T05:46:52.463Z,5.33
2019-05-07T05:49:18.813Z,4.05
2019-05-07T05:51:46.855Z,4.30
2019-05-07T05:54:31.867Z,4.40
2019-05-07T05:57:05.769Z,4.25
2019-05-07T05:59:48.231Z,3.77
2019-05-07T06:02:08.748Z,4.47
2019-05-07T06:04:54.732Z,4.50
2019-05-07T06:07:28.458Z,4.80
2019-05-07T06:09:56.463Z,3.70
2019-05-07T06:15:13.852Z,3.65
2019-05-07T06:17:42.503Z,3.77
2019-05-07T06:20:12.212Z,3.62
2019-05-07T06:22:42.441Z,4.05
2019-05-07T06:25:10.401Z,4.00
2019-05-07T06:27:36.640Z,3.50
2019-05-07T06:30:05.020Z,3.80
2019-05-07T06:32:32.035Z,3.30
2019-05-07T06:34:58.162Z,3.40
2019-05-07T06:37:24.194Z,3.90
2019-05-07T06:40:02.623Z,3.60
2019-05-07T06:42:45.672Z,3.25
2019-05-07T06:45:13.899Z,3.60
2019-05-07T06:47:39.804Z,3.20
2019-05-07T06:50:06.526Z,3.50
2019-05-07T06:52:32.629Z,3.70
2019-05-07T06:54:58.635Z,3.40
2019-05-07T06:57:26.567Z,3.58
2019-05-07T06:59:54.478Z,3.45
2019-05-07T07:02:25.392Z,3.27
2019-05-07T07:04:53.416Z,3.25
2019-05-07T07:07:33.901Z,3.45
2019-05-07T07:09:57.359Z,3.70
2019-05-07T07:12:26.131Z,3.08
2019-05-07T07:14:52.513Z,3.47
2019-05-07T07:17:18.628Z,3.80
2019-05-07T07:19:44.730Z,3.50
2019-05-07T07:22:12.892Z,4.00
2019-05-07T07:24:38.671Z,2.95
2019-05-07T07:27:04.790Z,4.25
2019-05-07T07:29:32.800Z,3.42
2019-05-07T07:32:02.343Z,4.87
2019-05-07T07:34:30.377Z,4.22
2019-05-07T07:37:06.021Z,3.40
2019-05-07T07:39:26.387Z,3.90
2019-05-07T07:42:08.820Z,3.55
2019-05-07T07:44:34.961Z,3.83
2019-05-07T07:47:02.519Z,3.50
2019-05-07T07:49:28.806Z,3.27
2019-05-07T07:51:54.910Z,3.35
2019-05-07T07:54:22.630Z,3.87
2019-05-07T07:57:06.096Z,5.33
2019-05-07T07:59:33.996Z,3.47
2019-05-07T08:02:07.926Z,3.87
2019-05-07T08:04:34.030Z,3.27
2019-05-07T08:07:03.145Z,3.20
2019-05-07T08:09:32.425Z,3.42
2019-05-07T08:11:58.803Z,3.02
2019-05-07T08:14:25.049Z,3.87
2019-05-07T08:16:52.875Z,3.95
2019-05-07T08:19:22.179Z,3.77
2019-05-07T08:21:47.163Z,2.98
2019-05-07T08:24:13.299Z,3.85
2019-05-07T08:26:39.400Z,3.42
2019-05-07T08:29:05.531Z,3.30
2019-05-07T08:31:33.449Z,3.33
2019-05-07T08:34:07.257Z,3.27
2019-05-07T08:36:33.392Z,3.58
2019-05-07T08:38:59.394Z,4.50
2019-05-07T08:41:26.517Z,3.02
2019-05-07T08:44:08.289Z,3.50
2019-05-07T08:46:29.972Z,3.60
2019-05-07T08:48:55.868Z,3.42
2019-05-07T08:51:22.392Z,3.10
2019-05-07T08:53:52.381Z,3.85
2019-05-07T08:56:18.912Z,3.45
2019-05-07T08:58:45.559Z,3.67
2019-05-07T09:01:12.011Z,3.37
2019-05-07T09:03:44.221Z,3.42
2019-05-07T09:06:11.870Z,3.20
2019-05-07T09:08:37.942Z,4.10
2019-05-07T09:11:04.042Z,3.70
2019-05-07T09:13:30.152Z,3.30
2019-05-07T09:15:56.153Z,3.77
2019-05-07T09:18:22.954Z,3.25
2019-05-07T09:20:49.171Z,3.92
2019-05-07T09:23:15.175Z,3.65
2019-05-07T09:25:48.117Z,3.25
2019-05-07T09:28:14.621Z,3.35
2019-05-07T09:30:52.445Z,3.58
2019-05-07T09:33:29.425Z,3.92
2019-05-07T09:35:55.557Z,3.40
2019-05-07T09:38:22.330Z,3.95
2019-05-07T09:40:48.508Z,3.40
2019-05-07T09:43:14.618Z,4.05
2019-05-07T09:45:42.079Z,3.60
2019-05-07T09:48:08.442Z,3.47
2019-05-07T09:50:34.543Z,3.67
2019-05-07T09:53:02.337Z,3.22
2019-05-07T09:55:28.604Z,4.08
2019-05-07T09:57:54.707Z,3.62
2019-05-07T10:00:22.633Z,3.75
2019-05-07T10:02:48.877Z,3.85
2019-05-07T10:05:15.212Z,3.50
2019-05-07T10:07:42.374Z,3.58
2019-05-07T10:10:08.849Z,3.25
2019-05-07T10:12:36.900Z,3.62
2019-05-07T10:15:05.607Z,3.80
2019-05-07T10:17:36.395Z,2.52
2019-05-07T10:20:18.248Z,3.10
2019-05-07T10:22:32.811Z,3.00
2019-05-07T10:24:58.916Z,3.37
2019-05-07T10:27:25.027Z,3.37
2019-05-07T10:29:52.974Z,2.92
2019-05-07T10:32:19.163Z,3.17
2019-05-07T10:34:45.274Z,2.87
2019-05-07T10:37:11.996Z,3.72
2019-05-07T10:39:38.389Z,2.98
2019-05-07T10:42:04.497Z,3.10
2019-05-07T10:44:32.502Z,2.72
2019-05-07T10:47:16.838Z,3.77
2019-05-07T10:49:44.851Z,3.62
2019-05-07T10:52:12.579Z,3.40
2019-05-07T10:54:38.801Z,3.25
2019-05-07T10:57:04.919Z,2.70
2019-05-07T10:59:31.027Z,2.92
2019-05-07T11:02:02.444Z,2.00
2019-05-07T11:04:39.245Z,2.65
2019-05-07T11:06:56.607Z,2.60
2019-05-07T11:09:22.717Z,2.40
2019-05-07T11:11:48.756Z,2.60
2019-05-07T11:14:14.897Z,2.67
2019-05-07T11:16:45.686Z,2.70
2019-05-07T11:19:12.694Z,2.67
2019-05-07T11:21:39.059Z,2.37
2019-05-07T11:24:05.158Z,2.60
2019-05-07T11:26:32.838Z,3.25
2019-05-07T11:28:59.350Z,2.72
2019-05-07T11:31:25.449Z,3.40
2019-05-07T11:33:52.081Z,2.95
2019-05-07T11:36:18.470Z,3.05
2019-05-07T11:38:44.723Z,3.17
2019-05-07T11:41:12.776Z,3.37
2019-05-07T11:43:46.813Z,2.35
2019-05-07T11:46:14.854Z,2.47
2019-05-07T11:48:42.872Z,2.75
2019-05-07T11:51:12.292Z,2.65
2019-05-07T11:53:57.640Z,2.55
2019-05-07T11:56:23.647Z,3.05
2019-05-07T11:58:52.815Z,2.85
2019-05-07T12:01:19.045Z,3.77
2019-05-07T12:03:45.049Z,3.22
2019-05-07T12:06:12.486Z,2.95
2019-05-07T12:08:48.053Z,3.95
2019-05-07T12:11:06.632Z,3.27
2019-05-07T12:13:32.714Z,4.40
2019-05-07T12:15:58.712Z,3.58
2019-05-07T12:18:24.942Z,4.25
2019-05-07T12:20:53.904Z,3.70
2019-05-07T12:23:19.018Z,4.20
2019-05-07T12:25:45.153Z,5.05
2019-05-07T12:28:13.089Z,3.87
2019-05-07T12:30:42.877Z,3.98
2019-05-07T12:33:16.678Z,4.17
2019-05-07T12:35:42.780Z,5.67
2019-05-07T12:38:08.885Z,4.65
2019-05-07T12:40:35.028Z,6.55
2019-05-07T12:43:01.922Z,6.15
2019-05-07T12:45:28.334Z,12.10
2019-05-07T12:47:54.437Z,12.63
2019-05-07T12:50:21.969Z,6.78
2019-05-07T12:52:55.860Z,3.42
2019-05-07T12:55:23.896Z,4.83
2019-05-07T12:57:51.920Z,3.70
2019-05-07T13:00:37.072Z,4.28
2019-05-07T13:03:13.817Z,4.60
2019-05-07T13:05:41.740Z,3.67
2019-05-07T13:08:08.035Z,3.42
2019-05-07T13:10:34.134Z,4.00
2019-05-07T13:13:02.235Z,6.85
2019-05-07T13:15:28.460Z,7.25
2019-05-07T13:17:54.518Z,5.60
2019-05-07T13:20:22.511Z,6.00
2019-05-07T13:22:48.635Z,5.33
2019-05-07T13:25:14.775Z,5.75
2019-05-07T13:27:42.726Z,6.92
2019-05-07T13:30:09.096Z,5.20
2019-05-07T13:32:37.015Z,5.30
2019-05-07T13:35:05.428Z,4.58
2019-05-07T13:37:33.531Z,5.17
2019-05-07T13:40:11.748Z,4.85
2019-05-07T13:42:48.471Z,6.28
2019-05-07T13:45:28.618Z,4.58
2019-05-07T13:48:12.247Z,3.20
2019-05-07T13:50:38.329Z,4.30
2019-05-07T13:53:04.448Z,4.25
2019-05-07T13:55:32.350Z,6.30
2019-05-07T13:57:58.559Z,3.10
2019-05-07T14:00:29.159Z,3.08
2019-05-07T14:02:55.269Z,3.83
2019-05-07T14:05:21.823Z,4.28
2019-05-07T14:07:47.882Z,6.05
2019-05-07T14:10:14.095Z,3.90
2019-05-07T14:12:42.373Z,2.98
2019-05-07T14:15:08.611Z,3.83
2019-05-07T14:17:34.723Z,2.70
2019-05-07T14:20:01.839Z,12.70
2019-05-07T14:22:28.852Z,10.45
2019-05-07T14:24:54.860Z,6.33
2019-05-07T14:27:20.974Z,5.53
2019-05-07T14:29:47.182Z,4.80
2019-05-07T14:32:15.187Z,4.05
2019-05-07T14:35:01.972Z,6.10
2019-05-07T14:37:29.787Z,2.80
2019-05-07T14:39:55.794Z,4.87
2019-05-07T14:42:26.431Z,8.93
2019-05-07T14:44:52.851Z,12.47
2019-05-07T14:47:19.259Z,5.67
2019-05-07T14:49:45.964Z,17.90
2019-05-07T14:52:12.364Z,7.83
2019-05-07T14:54:38.471Z,5.47
2019-05-07T14:57:04.598Z,5.55
2019-05-07T14:59:32.316Z,4.95
2019-05-07T15:01:58.557Z,5.72
2019-05-07T15:04:24.658Z,6.67
2019-05-07T15:06:51.957Z,6.70
2019-05-07T15:09:18.174Z,7.53
2019-05-07T15:11:44.319Z,14.87
2019-05-07T15:14:12.000Z,9.80
2019-05-07T15:16:38.868Z,5.47
2019-05-07T15:19:04.968Z,4.00
2019-05-07T15:21:32.298Z,4.08
2019-05-07T15:23:58.587Z,3.65
2019-05-07T15:26:24.720Z,13.20
2019-05-07T15:28:52.729Z,5.00
2019-05-07T15:31:20.746Z,5.97
2019-05-07T15:33:46.958Z,7.47
2019-05-07T15:36:13.060Z,9.35
2019-05-07T15:38:39.171Z,3.87
2019-05-07T15:41:05.275Z,5.62
2019-05-07T15:43:32.407Z,6.00
2019-05-07T15:45:58.587Z,7.25
2019-05-07T15:48:24.702Z,8.15
2019-05-07T15:50:51.973Z,29.15
2019-05-07T15:53:29.838Z,7.55
2019-05-07T15:55:56.048Z,19.40
2019-05-07T15:58:22.850Z,8.33
2019-05-07T16:00:49.057Z,8.85
2019-05-07T16:03:16.963Z,6.83
2019-05-07T16:05:43.111Z,5.92
2019-05-07T16:08:12.360Z,8.83
2019-05-07T16:10:38.538Z,5.33
2019-05-07T16:13:05.036Z,5.03
2019-05-07T16:15:31.951Z,4.30
2019-05-07T16:18:00.095Z,4.85
2019-05-07T16:20:26.103Z,10.70
2019-05-07T16:22:55.111Z,7.58
2019-05-07T16:25:22.442Z,8.88
2019-05-07T16:27:48.560Z,5.20
2019-05-07T16:30:14.698Z,10.32
2019-05-07T16:32:42.377Z,9.63
2019-05-07T16:35:12.262Z,8.78
2019-05-07T16:40:06.205Z,8.75
2019-05-07T16:42:32.317Z,8.40
2019-05-07T16:44:58.255Z,10.35
2019-05-07T16:47:24.364Z,6.90
2019-05-07T16:49:50.260Z,5.55
2019-05-07T16:52:16.372Z,10.75
2019-05-07T16:54:45.252Z,7.67
2019-05-07T16:57:29.214Z,5.70
2019-05-07T16:59:55.336Z,7.58
2019-05-07T17:02:23.243Z,7.40
2019-05-07T17:05:04.839Z,6.42
2019-05-07T17:07:32.169Z,7.85
2019-05-07T17:09:58.354Z,48.63
2019-05-07T17:12:24.499Z,55.60
2019-05-07T17:14:51.801Z,14.90
2019-05-07T17:17:17.813Z,10.53
2019-05-07T17:19:43.948Z,4.90
2019-05-07T17:22:11.985Z,8.25
2019-05-07T17:24:37.869Z,5.28
2019-05-07T17:27:03.986Z,17.65
2019-05-07T17:29:32.013Z,5.60
2019-05-07T17:31:57.762Z,8.60
2019-05-07T17:34:23.768Z,9.28
2019-05-07T17:36:49.882Z,13.22
2019-05-07T17:39:15.888Z,6.05
2019-05-07T17:41:42.944Z,5.33
2019-05-07T17:44:09.212Z,8.28
2019-05-07T17:46:35.321Z,12.80
2019-05-07T17:49:02.434Z,16.37
2019-05-07T17:51:44.742Z,9.85
2019-05-07T17:54:13.138Z,16.05
2019-05-07T17:56:39.223Z,7.40
2019-05-07T17:59:05.331Z,6.62
2019-05-07T18:01:33.710Z,25.55
2019-05-07T18:03:59.854Z,21.97
2019-05-07T18:06:25.963Z,9.60
2019-05-07T18:08:52.059Z,7.83
2019-05-07T18:11:21.344Z,17.15
2019-05-07T18:13:46.005Z,3.80
2019-05-07T18:16:16.771Z,3.95
2019-05-07T18:18:43.285Z,3.80
2019-05-07T18:21:09.475Z,3.58
2019-05-07T18:23:35.482Z,8.60
2019-05-07T18:26:01.597Z,63.10
2019-05-07T18:28:28.810Z,26.82
2019-05-07T18:30:54.836Z,14.23
2019-05-07T18:33:25.617Z,21.52
2019-05-07T18:35:52.526Z,24.87
2019-05-07T18:38:18.825Z,25.60
2019-05-07T18:40:44.925Z,24.82
2019-05-07T18:43:12.286Z,24.67
2019-05-07T18:45:38.451Z,23.80
2019-05-07T18:48:04.571Z,22.13
2019-05-07T18:50:32.551Z,15.03
2019-05-07T18:52:58.694Z,21.87
2019-05-07T18:55:24.697Z,13.48
2019-05-07T18:57:51.882Z,17.30
2019-05-07T19:00:26.277Z,29.80
2019-05-07T19:02:52.411Z,26.23
2019-05-07T19:05:19.508Z,27.73
2019-05-07T19:07:45.837Z,39.23
2019-05-07T19:10:12.739Z,27.65
2019-05-07T19:12:39.075Z,22.25
2019-05-07T19:15:05.609Z,21.00
2019-05-07T19:17:32.273Z,27.07
2019-05-07T19:19:58.681Z,33.35
2019-05-07T19:22:24.788Z,23.50
2019-05-07T19:24:52.730Z,27.42
2019-05-07T19:27:18.937Z,28.80
2019-05-07T19:29:45.891Z,26.50
2019-05-07T19:32:12.969Z,24.67
2019-05-07T19:34:38.972Z,20.80
2019-05-07T19:37:05.145Z,16.52
2019-05-07T19:39:32.473Z,15.38
2019-05-07T19:41:58.683Z,25.48
2019-05-07T19:44:24.687Z,19.62
2019-05-07T19:46:52.482Z,16.52
2019-05-07T19:49:18.761Z,19.48
2019-05-07T19:51:44.766Z,20.95
2019-05-07T19:54:10.866Z,21.00
2019-05-07T19:56:38.084Z,19.23
2019-05-07T19:59:04.186Z,16.40
2019-05-07T20:01:32.446Z,11.68
2019-05-07T20:03:58.630Z,11.53
2019-05-07T20:06:24.636Z,9.85
2019-05-07T20:08:52.775Z,12.18
2019-05-07T20:11:36.852Z,8.60
2019-05-07T20:14:03.146Z,13.65
2019-05-07T20:16:29.374Z,7.33
2019-05-07T20:18:55.274Z,8.50
2019-05-07T20:21:22.838Z,16.10
2019-05-07T20:23:49.188Z,13.03
2019-05-07T20:26:15.294Z,9.98
2019-05-07T20:28:41.847Z,8.55
2019-05-07T20:31:08.243Z,9.03
2019-05-07T20:33:34.285Z,9.13
2019-05-07T20:36:02.530Z,11.03
2019-05-07T20:38:28.338Z,21.62
2019-05-07T20:40:54.499Z,31.73
2019-05-07T20:43:20.400Z,23.25
2019-05-07T20:45:46.418Z,15.40
2019-05-07T20:48:12.323Z,13.00
2019-05-07T20:50:38.328Z,12.90
2019-05-07T20:53:04.522Z,9.90
2019-05-07T20:55:43.125Z,11.97
2019-05-07T20:58:09.310Z,10.48
2019-05-07T21:00:35.591Z,10.72
2019-05-07T21:03:19.655Z,11.22
2019-05-07T21:05:47.785Z,16.32
2019-05-07T21:08:13.928Z,19.82
2019-05-07T21:10:40.032Z,14.90
2019-05-07T21:13:06.161Z,18.15
2019-05-07T21:15:32.390Z,13.05
2019-05-07T21:17:58.456Z,10.82
2019-05-07T21:20:24.619Z,11.80
2019-05-07T21:22:51.913Z,11.05
2019-05-07T21:25:17.958Z,12.13
2019-05-07T21:27:44.003Z,10.75
2019-05-07T21:30:10.102Z,8.90
2019-05-07T21:32:36.106Z,9.73
2019-05-07T21:35:02.402Z,9.08
2019-05-07T21:37:28.428Z,12.40
2019-05-07T21:39:54.546Z,10.95
2019-05-07T21:42:22.678Z,12.75
2019-05-07T21:44:48.527Z,8.38
2019-05-07T21:47:14.633Z,7.72
2019-05-07T21:49:42.862Z,8.08
2019-05-07T21:52:08.447Z,7.72
2019-05-07T21:54:36.256Z,7.65
2019-05-07T21:57:12.639Z,6.12
2019-05-07T21:59:39.943Z,5.53
2019-05-07T22:02:13.910Z,8.00
2019-05-07T22:04:41.820Z,7.03
2019-05-07T22:07:07.991Z,5.85
2019-05-07T22:09:33.984Z,5.92
2019-05-07T22:12:00.121Z,7.20
2019-05-07T22:14:26.229Z,7.50
2019-05-07T22:16:54.503Z,7.37
2019-05-07T22:19:20.259Z,6.20
2019-05-07T22:21:46.370Z,7.97
2019-05-07T22:24:13.026Z,13.90
2019-05-07T22:26:42.027Z,12.85
2019-05-07T22:29:08.221Z,8.25
2019-05-07T22:31:52.969Z,7.10
2019-05-07T22:34:27.096Z,6.80
2019-05-07T22:36:55.025Z,5.65
2019-05-07T22:39:22.057Z,7.65
2019-05-07T22:41:48.338Z,6.70
2019-05-07T22:44:14.359Z,6.45
2019-05-07T22:46:42.122Z,7.97
2019-05-07T22:49:08.295Z,7.42
2019-05-07T22:51:34.401Z,7.85
2019-05-07T22:54:04.103Z,8.10
2019-05-07T22:56:45.555Z,6.08
2019-05-07T22:59:12.204Z,7.75
2019-05-07T23:01:39.575Z,8.13
2019-05-07T23:04:05.739Z,7.05
2019-05-07T23:06:31.674Z,8.53
2019-05-07T23:08:57.669Z,8.13
2019-05-07T23:11:23.675Z,6.50
2019-05-07T23:13:49.582Z,5.92
2019-05-07T23:16:15.496Z,5.85
2019-05-07T23:18:42.935Z,20.45
2019-05-07T23:21:09.132Z,7.60
2019-05-07T23:23:35.152Z,7.22
2019-05-07T23:26:02.904Z,6.72
2019-05-07T23:28:29.004Z,6.28
2019-05-07T23:30:55.117Z,6.15
2019-05-07T23:33:22.593Z,14.90
2019-05-07T23:35:48.795Z,9.93
2019-05-07T23:38:15.961Z,8.23
2019-05-07T23:40:52.464Z,9.73
2019-05-07T23:43:19.954Z,9.65
2019-05-07T23:45:45.979Z,8.75
2019-05-07T23:48:12.406Z,5.83
2019-05-07T23:50:38.432Z,6.28
2019-05-07T23:53:04.439Z,7.67
2019-05-07T23:55:31.861Z,7.53
2019-05-07T23:57:58.066Z,6.85
